createdAt,value
2023-04-01T00:01:48.369Z,8.00
2023-04-01T00:04:16.665Z,8.05
2023-04-01T00:06:43.954Z,7.97
2023-04-01T00:09:11.362Z,7.80
2023-04-01T00:11:38.565Z,8.07
2023-04-01T00:14:06.272Z,8.63
2023-04-01T00:16:33.510Z,7.50
2023-04-01T00:19:01.166Z,8.68
2023-04-01T00:21:28.350Z,8.57
2023-04-01T00:23:55.530Z,8.70
2023-04-01T00:26:23.562Z,9.07
2023-04-01T00:28:51.186Z,9.10
2023-04-01T00:31:18.540Z,10.05
2023-04-01T00:33:45.819Z,9.18
2023-04-01T00:36:17.915Z,8.38
2023-04-01T00:38:45.940Z,8.88
2023-04-01T00:41:17.873Z,9.82
2023-04-01T00:43:46.262Z,10.45
2023-04-01T00:46:13.386Z,10.02
2023-04-01T00:48:43.645Z,9.45
2023-04-01T00:51:16.430Z,9.65
2023-04-01T00:53:46.156Z,9.35
2023-04-01T00:56:19.155Z,9.18
2023-04-01T00:58:49.361Z,9.50
2023-04-01T01:01:16.956Z,10.00
2023-04-01T01:03:44.184Z,9.38
2023-04-01T01:06:30.416Z,10.30
2023-04-01T01:09:10.371Z,9.02
2023-04-01T01:12:00.842Z,10.55
2023-04-01T01:14:54.575Z,7.90
2023-04-01T01:17:28.910Z,10.02
2023-04-01T01:19:59.164Z,9.20
2023-04-01T01:22:32.017Z,9.07
2023-04-01T01:25:05.106Z,10.65
2023-04-01T01:27:33.163Z,7.85
2023-04-01T01:30:07.453Z,9.30
2023-04-01T01:32:46.499Z,9.63
2023-04-01T01:35:14.093Z,7.10
2023-04-01T01:37:42.171Z,6.35
2023-04-01T01:40:12.415Z,6.70
2023-04-01T01:42:41.676Z,6.97
2023-04-01T01:45:10.377Z,7.88
2023-04-01T01:47:37.726Z,7.07
2023-04-01T01:50:05.918Z,7.57
2023-04-01T01:52:33.196Z,8.25
2023-04-01T01:55:00.298Z,7.25
2023-04-01T01:57:30.524Z,6.60
2023-04-01T02:00:00.619Z,6.63
2023-04-01T02:02:28.378Z,6.50
2023-04-01T02:04:56.127Z,7.00
2023-04-01T02:07:29.037Z,6.88
2023-04-01T02:09:56.414Z,5.53
2023-04-01T02:12:24.338Z,5.70
2023-04-01T02:14:57.011Z,6.30
2023-04-01T02:17:27.432Z,5.70
2023-04-01T02:19:57.608Z,6.00
2023-04-01T02:22:29.462Z,5.85
2023-04-01T02:24:59.244Z,6.05
2023-04-01T02:27:26.546Z,5.32
2023-04-01T02:29:53.992Z,6.03
2023-04-01T02:32:21.840Z,5.70
2023-04-01T02:34:49.718Z,4.45
2023-04-01T02:37:17.068Z,6.25
2023-04-01T02:39:44.325Z,6.20
2023-04-01T02:42:11.663Z,4.93
2023-04-01T02:44:38.817Z,6.15
2023-04-01T02:47:06.158Z,6.45
2023-04-01T02:49:33.335Z,6.88
2023-04-01T02:52:00.592Z,6.05
2023-04-01T02:54:27.767Z,5.22
2023-04-01T02:56:54.947Z,5.10
2023-04-01T02:59:22.064Z,5.90
2023-04-01T03:01:49.177Z,6.30
2023-04-01T03:04:16.470Z,5.95
2023-04-01T03:06:43.672Z,5.38
2023-04-01T03:09:11.610Z,5.65
2023-04-01T03:11:38.853Z,5.25
2023-04-01T03:14:06.049Z,5.60
2023-04-01T03:16:33.175Z,4.95
2023-04-01T03:19:03.160Z,4.57
2023-04-01T03:21:30.370Z,4.60
2023-04-01T03:23:57.596Z,5.20
2023-04-01T03:26:24.732Z,5.18
2023-04-01T03:28:51.881Z,5.13
2023-04-01T03:31:20.416Z,5.65
2023-04-01T03:33:48.852Z,6.43
2023-04-01T03:36:16.237Z,6.07
2023-04-01T03:38:43.818Z,6.00
2023-04-01T03:41:18.059Z,5.22
2023-04-01T03:43:45.498Z,5.95
2023-04-01T03:46:12.702Z,5.93
2023-04-01T03:48:40.300Z,5.32
2023-04-01T03:51:10.431Z,5.53
2023-04-01T03:53:37.818Z,5.28
2023-04-01T03:56:06.458Z,5.47
2023-04-01T03:58:33.869Z,5.57
2023-04-01T04:01:01.032Z,5.28
2023-04-01T04:03:29.113Z,4.80
2023-04-01T04:05:57.379Z,5.38
2023-04-01T04:08:24.586Z,4.85
2023-04-01T04:10:56.805Z,5.72
2023-04-01T04:13:23.930Z,5.45
2023-04-01T04:15:51.037Z,5.68
2023-04-01T04:18:18.357Z,5.70
2023-04-01T04:20:49.524Z,4.90
2023-04-01T04:23:16.713Z,5.60
2023-04-01T04:25:54.517Z,5.82
2023-04-01T04:28:21.692Z,4.80
2023-04-01T04:30:48.813Z,5.22
2023-04-01T04:36:44.734Z,3.58
2023-04-01T04:39:12.110Z,3.67
2023-04-01T04:41:39.627Z,3.65
2023-04-01T04:44:06.836Z,4.57
2023-04-01T04:46:34.020Z,3.40
2023-04-01T04:49:01.354Z,3.40
2023-04-01T04:51:28.652Z,3.17
2023-04-01T04:53:56.107Z,2.88
2023-04-01T04:56:26.314Z,3.00
2023-04-01T04:58:53.841Z,2.78
2023-04-01T05:01:21.378Z,2.67
2023-04-01T05:03:48.596Z,2.75
2023-04-01T05:06:16.372Z,3.60
2023-04-01T05:08:44.298Z,3.97
2023-04-01T05:11:14.009Z,3.60
2023-04-01T05:13:41.589Z,3.70
2023-04-01T05:16:13.230Z,3.60
2023-04-01T05:18:40.730Z,3.22
2023-04-01T05:21:09.200Z,3.45
2023-04-01T05:23:36.982Z,4.18
2023-04-01T05:26:05.047Z,4.05
2023-04-01T05:28:32.110Z,4.40
2023-04-01T05:31:02.994Z,3.72
2023-04-01T05:33:30.252Z,4.53
2023-04-01T05:35:58.061Z,4.32
2023-04-01T05:38:25.587Z,4.57
2023-04-01T05:40:52.674Z,5.72
2023-04-01T05:43:19.884Z,5.50
2023-04-01T05:45:46.991Z,5.22
2023-04-01T05:48:14.138Z,4.68
2023-04-01T05:50:42.706Z,4.88
2023-04-01T05:53:09.869Z,5.80
2023-04-01T05:55:37.568Z,4.75
2023-04-01T05:58:04.763Z,5.10
2023-04-01T06:00:31.891Z,4.85
2023-04-01T06:03:02.416Z,5.63
2023-04-01T06:05:31.675Z,5.65
2023-04-01T06:08:04.538Z,5.80
2023-04-01T06:10:40.759Z,5.70
2023-04-01T06:13:20.294Z,6.03
2023-04-01T06:15:55.515Z,6.15
2023-04-01T06:18:22.679Z,6.15
2023-04-01T06:20:58.627Z,5.93
2023-04-01T06:23:25.906Z,5.32
2023-04-01T06:26:12.773Z,6.50
2023-04-01T06:28:43.014Z,6.47
2023-04-01T06:31:10.256Z,5.47
2023-04-01T06:34:03.605Z,5.18
2023-04-01T06:36:30.870Z,5.47
2023-04-01T06:39:17.674Z,5.28
2023-04-01T06:42:05.464Z,4.75
2023-04-01T06:44:40.194Z,4.90
2023-04-01T06:47:29.998Z,4.75
2023-04-01T06:50:19.597Z,4.30
2023-04-01T06:53:16.278Z,4.78
2023-04-01T06:55:51.725Z,2.67
2023-04-01T06:58:27.095Z,3.83
2023-04-01T07:00:56.628Z,3.70
2023-04-01T07:03:30.199Z,4.20
2023-04-01T07:06:00.583Z,3.60
2023-04-01T07:08:29.364Z,3.92
2023-04-01T07:11:07.559Z,3.17
2023-04-01T07:13:38.007Z,3.47
2023-04-01T07:16:08.967Z,2.20
2023-04-01T07:18:43.769Z,3.20
2023-04-01T07:21:31.881Z,4.30
2023-04-01T07:24:03.199Z,2.95
2023-04-01T07:26:30.638Z,3.53
2023-04-01T07:28:58.534Z,3.67
2023-04-01T07:31:44.676Z,4.32
2023-04-01T07:34:32.960Z,4.85
2023-04-01T07:37:10.444Z,3.38
2023-04-01T07:39:43.795Z,5.10
2023-04-01T07:42:14.117Z,5.05
2023-04-01T07:44:47.262Z,4.82
2023-04-01T07:47:14.563Z,3.58
2023-04-01T07:49:44.552Z,4.47
2023-04-01T07:52:30.481Z,3.90
2023-04-01T07:55:03.830Z,4.38
2023-04-01T07:57:43.880Z,5.05
2023-04-01T08:00:12.076Z,5.50
2023-04-01T08:02:45.165Z,5.57
2023-04-01T08:05:28.293Z,4.90
2023-04-01T08:08:11.116Z,4.80
2023-04-01T08:10:41.516Z,5.22
2023-04-01T08:13:14.700Z,4.65
2023-04-01T08:15:42.006Z,5.15
2023-04-01T08:18:11.959Z,5.65
2023-04-01T08:20:44.056Z,4.35
2023-04-01T08:23:20.452Z,5.38
2023-04-01T08:25:56.747Z,5.15
2023-04-01T08:28:26.870Z,5.68
2023-04-01T08:30:56.849Z,5.55
2023-04-01T08:33:28.455Z,5.70
2023-04-01T08:36:01.851Z,4.60
2023-04-01T08:38:52.787Z,6.30
2023-04-01T08:41:22.905Z,6.18
2023-04-01T08:43:50.546Z,5.85
2023-04-01T08:46:24.746Z,5.80
2023-04-01T08:48:52.041Z,5.47
2023-04-01T08:51:29.027Z,4.93
2023-04-01T08:53:56.209Z,6.05
2023-04-01T08:56:38.262Z,5.93
2023-04-01T08:59:05.547Z,6.38
2023-04-01T09:01:51.510Z,6.07
2023-04-01T09:04:27.812Z,6.43
2023-04-01T09:07:14.142Z,7.28
2023-04-01T09:09:44.148Z,6.43
2023-04-01T09:12:38.570Z,7.05
2023-04-01T09:15:24.920Z,6.00
2023-04-01T09:18:05.496Z,6.90
2023-04-01T09:20:32.638Z,7.18
2023-04-01T09:23:18.820Z,7.38
2023-04-01T09:25:55.873Z,7.80
2023-04-01T09:28:31.153Z,6.18
2023-04-01T09:31:24.432Z,6.38
2023-04-01T09:36:37.280Z,5.57
2023-04-01T09:39:23.681Z,4.80
2023-04-01T09:42:08.902Z,6.38
2023-04-01T09:44:37.528Z,5.85
2023-04-01T09:47:04.623Z,5.20
2023-04-01T09:49:51.044Z,4.95
2023-04-01T09:52:36.570Z,4.70
2023-04-01T09:55:16.602Z,4.38
2023-04-01T09:57:46.743Z,4.78
2023-04-01T10:00:16.873Z,5.00
2023-04-01T10:02:43.983Z,3.92
2023-04-01T10:05:26.668Z,4.00
2023-04-01T10:07:59.615Z,3.92
2023-04-01T10:10:26.857Z,3.72
2023-04-01T10:16:40.055Z,4.03
2023-04-01T10:19:24.556Z,3.70
2023-04-01T10:22:10.021Z,3.50
2023-04-01T10:24:37.123Z,3.78
2023-04-01T10:27:04.200Z,3.30
2023-04-01T10:30:09.912Z,3.22
2023-04-01T10:32:56.896Z,3.60
2023-04-01T10:38:03.524Z,2.78
2023-04-01T10:40:33.499Z,2.75
2023-04-01T10:43:20.786Z,3.10
2023-04-01T10:45:48.333Z,2.85
2023-04-01T10:48:25.344Z,3.38
2023-04-01T10:50:58.618Z,2.58
2023-04-01T10:53:38.902Z,3.00
2023-04-01T10:56:26.861Z,3.20
2023-04-01T10:58:57.051Z,3.83
2023-04-01T11:01:33.584Z,3.92
2023-04-01T11:04:20.002Z,4.22
2023-04-01T11:06:53.430Z,3.80
2023-04-01T11:09:29.653Z,4.00
2023-04-01T11:12:15.763Z,4.20
2023-04-01T11:14:45.728Z,3.88
2023-04-01T11:17:31.568Z,3.33
2023-04-01T11:20:01.519Z,3.67
2023-04-01T11:22:31.546Z,3.90
2023-04-01T11:25:01.664Z,3.45
2023-04-01T11:27:39.737Z,2.47
2023-04-01T11:30:19.111Z,3.30
2023-04-01T11:32:58.561Z,3.38
2023-04-01T11:35:35.306Z,2.75
2023-04-01T11:38:13.969Z,2.88
2023-04-01T11:40:41.268Z,2.92
2023-04-01T11:43:32.273Z,3.08
2023-04-01T11:46:14.341Z,2.15
2023-04-01T11:48:46.124Z,2.75
2023-04-01T11:51:16.456Z,2.25
2023-04-01T11:53:48.261Z,2.28
2023-04-01T11:56:33.530Z,1.90
2023-04-01T11:59:16.008Z,2.30
2023-04-01T12:01:58.575Z,2.47
2023-04-01T12:04:38.653Z,2.30
2023-04-01T12:07:21.106Z,1.85
2023-04-01T12:09:58.765Z,1.95
2023-04-01T12:13:00.860Z,1.92
2023-04-01T12:15:38.822Z,1.90
2023-04-01T12:18:24.970Z,2.10
2023-04-01T12:21:11.606Z,1.50
2023-04-01T12:23:38.972Z,2.13
2023-04-01T12:26:06.285Z,2.72
2023-04-01T12:28:43.093Z,2.38
2023-04-01T12:31:20.380Z,2.80
2023-04-01T12:33:56.775Z,3.20
2023-04-01T12:37:02.708Z,3.08
2023-04-01T12:39:30.004Z,2.20
2023-04-01T12:42:06.602Z,2.45
2023-04-01T12:44:43.227Z,3.47
2023-04-01T12:47:21.261Z,3.65
2023-04-01T12:49:57.596Z,3.03
2023-04-01T12:52:33.019Z,3.53
2023-04-01T12:55:09.430Z,3.00
2023-04-01T12:57:51.302Z,3.40
2023-04-01T13:00:21.352Z,2.10
2023-04-01T13:02:59.185Z,2.33
2023-04-01T13:05:54.836Z,1.17
2023-04-01T13:08:44.992Z,2.40
2023-04-01T13:11:15.446Z,1.95
2023-04-01T13:13:45.734Z,3.40
2023-04-01T13:16:30.399Z,3.65
2023-04-01T13:19:00.612Z,3.42
2023-04-01T13:21:30.557Z,3.95
2023-04-01T13:24:03.361Z,3.72
2023-04-01T13:26:48.112Z,4.28
2023-04-01T13:29:31.604Z,4.80
2023-04-01T13:32:17.602Z,5.28
2023-04-01T13:34:44.880Z,5.13
2023-04-01T13:37:36.286Z,3.78
2023-04-01T13:40:22.583Z,4.70
2023-04-01T13:42:53.508Z,4.63
2023-04-01T13:45:25.694Z,4.13
2023-04-01T13:48:11.021Z,4.63
2023-04-01T13:50:57.198Z,3.40
2023-04-01T13:53:36.543Z,3.72
2023-04-01T13:56:03.886Z,3.00
2023-04-01T13:58:40.356Z,2.45
2023-04-01T14:01:19.599Z,3.05
2023-04-01T14:04:19.261Z,3.33
2023-04-01T14:06:52.548Z,2.55
2023-04-01T14:09:31.896Z,2.70
2023-04-01T14:12:04.913Z,2.28
2023-04-01T14:14:35.104Z,2.47
2023-04-01T14:17:09.065Z,1.90
2023-04-01T14:19:36.199Z,1.70
2023-04-01T14:22:22.027Z,2.25
2023-04-01T14:25:08.248Z,3.00
2023-04-01T14:27:54.154Z,1.98
2023-04-01T14:30:21.332Z,1.98
2023-04-01T14:32:57.925Z,1.88
2023-04-01T14:35:37.606Z,2.83
2023-04-01T14:38:36.318Z,2.00
2023-04-01T14:44:14.813Z,3.88
2023-04-01T14:47:19.953Z,4.07
2023-04-01T14:49:52.797Z,2.97
2023-04-01T14:52:37.795Z,3.85
2023-04-01T14:55:20.648Z,9.95
2023-04-01T14:58:00.373Z,5.15
2023-04-01T15:00:39.530Z,9.85
2023-04-01T15:03:15.734Z,2.38
2023-04-01T15:05:51.622Z,2.90
2023-04-01T15:08:34.300Z,3.72
2023-04-01T15:16:58.816Z,3.13
2023-04-01T15:19:44.768Z,1.33
2023-04-01T15:22:17.933Z,2.08
2023-04-01T15:24:49.686Z,2.65
2023-04-01T15:27:28.930Z,4.03
2023-04-01T15:29:59.059Z,3.30
2023-04-01T15:32:29.160Z,3.45
2023-04-01T15:35:04.909Z,9.93
2023-04-01T15:37:32.400Z,3.13
2023-04-01T15:40:04.305Z,1.90
2023-04-01T15:42:38.068Z,2.25
2023-04-01T15:45:10.093Z,4.45
2023-04-01T15:47:39.196Z,3.88
2023-04-01T15:50:15.627Z,3.03
2023-04-01T15:52:48.910Z,1.80
2023-04-01T15:55:21.749Z,2.50
2023-04-01T15:58:08.178Z,3.38
2023-04-01T16:00:54.226Z,21.98
2023-04-01T16:14:18.840Z,8.10
2023-04-01T16:17:04.896Z,5.53
2023-04-01T16:19:43.979Z,3.20
2023-04-01T16:22:29.856Z,2.92
2023-04-01T16:25:09.150Z,2.50
2023-04-01T16:27:45.639Z,3.50
2023-04-01T16:30:18.923Z,3.60
2023-04-01T16:32:51.049Z,4.25
2023-04-01T16:35:21.142Z,3.80
2023-04-01T16:40:41.890Z,4.97
2023-04-01T16:43:09.052Z,2.92
2023-04-01T16:45:45.582Z,6.88
2023-04-01T16:48:14.504Z,3.67
2023-04-01T16:50:48.421Z,6.30
2023-04-01T16:53:16.978Z,10.45
2023-04-01T16:55:47.825Z,8.05
2023-04-01T16:58:29.541Z,3.70
2023-04-01T17:01:11.113Z,7.32
2023-04-01T17:06:47.298Z,6.00
2023-04-01T17:09:43.665Z,5.50
2023-04-01T17:20:45.516Z,3.92
2023-04-01T17:23:16.040Z,11.25
2023-04-01T17:25:55.471Z,6.25
2023-04-01T17:33:34.326Z,3.10
2023-04-01T17:36:06.361Z,3.53
2023-04-01T17:38:49.000Z,5.43
2023-04-01T17:41:34.787Z,6.10
2023-04-01T17:44:17.528Z,3.60
2023-04-01T17:46:47.778Z,5.90
2023-04-01T17:49:34.067Z,5.03
2023-04-01T17:52:20.824Z,6.18
2023-04-01T17:54:51.105Z,10.23
2023-04-01T17:57:37.194Z,6.80
2023-04-01T18:00:13.758Z,4.63
2023-04-01T18:02:41.119Z,3.25
2023-04-01T18:05:24.534Z,3.90
2023-04-01T18:08:01.060Z,6.05
2023-04-01T18:10:31.415Z,2.95
2023-04-01T18:13:31.586Z,7.53
2023-04-01T18:16:04.992Z,4.72
2023-04-01T18:18:51.269Z,3.25
2023-04-01T18:21:36.991Z,8.80
2023-04-01T18:24:23.451Z,9.35
2023-04-01T18:27:13.954Z,11.23
2023-04-01T18:29:56.432Z,7.28
2023-04-01T18:32:50.090Z,4.88
2023-04-01T18:35:17.472Z,5.20
2023-04-01T18:37:51.157Z,6.95
2023-04-01T18:40:25.578Z,8.25
2023-04-01T18:43:01.803Z,5.28
2023-04-01T18:45:31.096Z,3.88
2023-04-01T18:48:16.993Z,4.63
2023-04-01T18:50:56.492Z,4.40
2023-04-01T18:53:36.126Z,3.75
2023-04-01T18:56:05.240Z,6.15
2023-04-01T18:58:48.853Z,6.45
2023-04-01T19:01:19.027Z,4.50
2023-04-01T19:03:50.828Z,10.70
2023-04-01T19:06:30.570Z,5.78
2023-04-01T19:09:10.603Z,13.75
2023-04-01T19:11:50.780Z,4.72
2023-04-01T19:14:18.044Z,3.95
2023-04-01T19:16:48.341Z,2.75
2023-04-01T19:19:18.863Z,3.80
2023-04-01T19:21:48.042Z,3.47
2023-04-01T19:24:24.268Z,3.88
2023-04-01T19:27:10.393Z,3.00
2023-04-01T19:29:40.848Z,3.25
2023-04-01T19:32:13.733Z,3.25
2023-04-01T19:34:44.395Z,3.55
2023-04-01T19:37:26.627Z,2.75
2023-04-01T19:40:03.175Z,3.55
2023-04-01T19:42:33.588Z,3.45
2023-04-01T19:45:09.090Z,3.05
2023-04-01T19:47:55.176Z,3.65
2023-04-01T19:50:26.186Z,3.05
2023-04-01T19:52:55.527Z,3.28
2023-04-01T19:55:41.713Z,3.60
2023-04-01T19:58:26.825Z,4.38
2023-04-01T20:00:55.295Z,4.15
2023-04-01T20:03:27.513Z,3.28
2023-04-01T20:06:04.391Z,3.58
2023-04-01T20:08:44.119Z,3.72
2023-04-01T20:11:28.156Z,4.70
2023-04-01T20:14:01.171Z,6.63
2023-04-01T20:16:51.692Z,8.70
2023-04-01T20:19:30.080Z,7.65
2023-04-01T20:22:00.013Z,6.25
2023-04-01T20:24:31.413Z,10.60
2023-04-01T20:27:04.537Z,7.85
2023-04-01T20:29:39.414Z,10.15
2023-04-01T20:32:20.409Z,13.57
2023-04-01T20:35:07.764Z,6.72
2023-04-01T20:40:11.166Z,5.32
2023-04-01T20:42:50.805Z,4.53
2023-04-01T20:45:17.942Z,4.40
2023-04-01T20:47:45.408Z,5.03
2023-04-01T20:50:22.066Z,5.32
2023-04-01T20:53:03.538Z,5.80
2023-04-01T20:55:41.241Z,4.30
2023-04-01T20:58:14.292Z,5.20
2023-04-01T21:00:54.247Z,4.13
2023-04-01T21:03:30.414Z,5.75
2023-04-01T21:06:06.649Z,4.60
2023-04-01T21:08:52.322Z,5.82
2023-04-01T21:11:38.180Z,4.68
2023-04-01T21:14:11.534Z,5.68
2023-04-01T21:16:43.163Z,4.90
2023-04-01T21:19:10.459Z,5.72
2023-04-01T21:21:44.932Z,5.68
2023-04-01T21:24:30.536Z,4.15
2023-04-01T21:27:07.564Z,3.75
2023-04-01T21:29:35.219Z,5.07
2023-04-01T21:32:21.530Z,4.60
2023-04-01T21:34:52.886Z,4.45
2023-04-01T21:37:28.884Z,4.03
2023-04-01T21:40:14.568Z,2.83
2023-04-01T21:43:00.672Z,4.00
2023-04-01T21:45:38.675Z,3.60
2023-04-01T21:48:11.827Z,4.03
2023-04-01T21:50:46.395Z,3.90
2023-04-01T21:53:13.660Z,4.88
2023-04-01T21:55:59.557Z,3.90
2023-04-01T21:58:45.624Z,4.18
2023-04-01T22:01:25.281Z,5.28
2023-04-01T22:04:04.247Z,5.10
2023-04-01T22:06:41.230Z,4.72
2023-04-01T22:09:20.337Z,4.05
2023-04-01T22:12:02.493Z,5.22
2023-04-01T22:14:32.783Z,5.10
2023-04-01T22:17:04.316Z,5.75
2023-04-01T22:19:42.116Z,3.67
2023-04-01T22:22:21.963Z,5.60
2023-04-01T22:24:49.178Z,5.10
2023-04-01T22:27:16.517Z,5.60
2023-04-01T22:29:49.745Z,5.07
2023-04-01T22:32:25.969Z,4.25
2023-04-01T22:34:53.228Z,4.10
2023-04-01T22:37:26.116Z,5.00
2023-04-01T22:40:02.013Z,4.78
2023-04-01T22:42:47.981Z,4.28
2023-04-01T22:45:17.213Z,5.45
2023-04-01T22:48:02.471Z,4.78
2023-04-01T22:50:37.011Z,5.53
2023-04-01T22:53:17.464Z,4.72
2023-04-01T22:55:52.676Z,3.63
2023-04-01T22:58:27.134Z,4.70
2023-04-01T23:00:57.870Z,3.63
2023-04-01T23:03:31.703Z,5.07
2023-04-01T23:06:00.511Z,5.40
2023-04-01T23:08:27.625Z,4.57
2023-04-01T23:11:00.659Z,5.47
2023-04-01T23:13:31.082Z,5.93
2023-04-01T23:15:58.759Z,5.80
2023-04-01T23:18:26.270Z,3.92
2023-04-01T23:20:56.188Z,5.85
2023-04-01T23:23:26.251Z,5.72
2023-04-01T23:26:04.503Z,3.38
2023-04-01T23:28:34.585Z,5.80
2023-04-01T23:31:01.876Z,7.55
2023-04-01T23:33:32.661Z,5.45
2023-04-01T23:36:14.976Z,7.85
2023-04-01T23:38:43.834Z,6.32
2023-04-01T23:41:18.694Z,6.32
2023-04-01T23:43:46.995Z,5.55
2023-04-01T23:46:14.533Z,6.10
2023-04-01T23:48:42.965Z,6.70
2023-04-01T23:51:19.761Z,8.02
2023-04-01T23:53:48.362Z,6.20
2023-04-01T23:56:18.991Z,7.30
2023-04-01T23:58:47.749Z,5.00
